createdAt,value
2023-03-01T00:02:00.974Z,74.68
2023-03-01T00:04:29.263Z,75.21
2023-03-01T00:06:56.996Z,75.58
2023-03-01T00:09:24.870Z,76.89
2023-03-01T00:11:52.591Z,76.95
2023-03-01T00:14:20.400Z,76.90
2023-03-01T00:16:48.577Z,76.97
2023-03-01T00:19:19.546Z,76.18
2023-03-01T00:21:48.037Z,75.79
2023-03-01T00:24:16.409Z,75.33
2023-03-01T00:26:44.261Z,76.09
2023-03-01T00:29:12.032Z,76.38
2023-03-01T00:31:39.802Z,76.96
2023-03-01T00:34:07.750Z,76.87
2023-03-01T00:36:39.109Z,76.00
2023-03-01T00:39:12.532Z,76.17
2023-03-01T00:41:41.129Z,76.35
2023-03-01T00:44:09.851Z,76.82
2023-03-01T00:46:37.813Z,76.60
2023-03-01T00:49:06.453Z,76.68
2023-03-01T00:51:35.901Z,77.68
2023-03-01T00:54:04.712Z,77.46
2023-03-01T00:56:33.739Z,77.35
2023-03-01T00:59:01.801Z,77.28
2023-03-01T01:01:32.369Z,76.98
2023-03-01T01:04:02.632Z,76.75
2023-03-01T01:06:33.120Z,75.33
2023-03-01T01:09:02.589Z,74.92
2023-03-01T01:11:31.466Z,75.86
2023-03-01T01:14:00.808Z,76.09
2023-03-01T01:16:32.104Z,76.26
2023-03-01T01:19:00.132Z,75.48
2023-03-01T01:21:29.446Z,75.72
2023-03-01T01:23:58.534Z,76.28
2023-03-01T01:26:30.446Z,77.01
2023-03-01T01:28:59.388Z,78.38
2023-03-01T01:31:27.909Z,77.15
2023-03-01T01:33:58.593Z,78.16
2023-03-01T01:36:26.489Z,78.22
2023-03-01T01:38:55.098Z,77.29
2023-03-01T01:41:23.433Z,76.45
2023-03-01T01:44:14.122Z,75.29
2023-03-01T01:46:43.642Z,75.82
2023-03-01T01:49:25.576Z,76.70
2023-03-01T01:51:59.073Z,77.32
2023-03-01T01:54:31.232Z,77.84
2023-03-01T01:57:04.806Z,77.18
2023-03-01T01:59:35.557Z,77.21
2023-03-01T02:02:06.974Z,78.02
2023-03-01T02:04:37.823Z,78.16
2023-03-01T02:07:11.207Z,76.98
2023-03-01T02:09:39.527Z,77.14
2023-03-01T02:12:08.164Z,78.29
2023-03-01T02:14:37.352Z,78.43
2023-03-01T02:17:05.283Z,79.40
2023-03-01T02:19:42.679Z,78.91
2023-03-01T02:22:22.782Z,79.05
2023-03-01T02:25:02.932Z,79.11
2023-03-01T02:27:39.145Z,77.80
2023-03-01T02:30:13.239Z,79.49
2023-03-01T02:32:42.665Z,78.40
2023-03-01T02:35:12.537Z,78.00
2023-03-01T02:37:42.054Z,78.70
2023-03-01T02:40:13.620Z,78.38
2023-03-01T02:42:49.544Z,79.69
2023-03-01T02:45:18.941Z,80.12
2023-03-01T02:47:46.839Z,78.57
2023-03-01T02:50:24.658Z,79.36
2023-03-01T02:53:00.727Z,80.76
2023-03-01T02:55:29.832Z,79.53
2023-03-01T02:57:58.975Z,79.66
2023-03-01T03:00:34.242Z,79.59
2023-03-01T03:03:02.078Z,80.26
2023-03-01T03:05:31.704Z,80.52
2023-03-01T03:08:02.278Z,81.07
2023-03-01T03:10:35.920Z,80.06
2023-03-01T03:13:06.798Z,79.45
2023-03-01T03:15:37.448Z,80.50
2023-03-01T03:18:08.020Z,81.51
2023-03-01T03:20:36.571Z,80.31
2023-03-01T03:23:04.696Z,81.13
2023-03-01T03:25:32.452Z,79.26
2023-03-01T03:28:00.911Z,79.32
2023-03-01T03:30:31.580Z,80.24
2023-03-01T03:33:01.465Z,80.88
2023-03-01T03:35:32.072Z,79.97
2023-03-01T03:38:03.518Z,80.60
2023-03-01T03:40:33.472Z,80.18
2023-03-01T03:43:01.191Z,80.01
2023-03-01T03:45:29.595Z,80.55
2023-03-01T03:48:05.821Z,81.16
2023-03-01T03:50:33.974Z,80.17
2023-03-01T03:53:02.590Z,80.33
2023-03-01T03:55:31.600Z,80.33
2023-03-01T03:58:03.099Z,81.97
2023-03-01T04:00:31.332Z,80.53
2023-03-01T04:02:59.125Z,80.31
2023-03-01T04:05:29.519Z,81.49
2023-03-01T04:08:08.186Z,81.41
2023-03-01T04:10:38.542Z,80.82
2023-03-01T04:13:06.687Z,78.64
2023-03-01T04:15:35.327Z,79.31
2023-03-01T04:18:03.851Z,80.47
2023-03-01T04:20:35.825Z,80.29
2023-03-01T04:23:11.564Z,79.59
2023-03-01T04:25:42.495Z,81.07
2023-03-01T04:28:11.787Z,80.58
2023-03-01T04:30:40.519Z,81.69
2023-03-01T04:33:09.825Z,80.51
2023-03-01T04:35:39.994Z,80.38
2023-03-01T04:38:08.402Z,80.82
2023-03-01T04:40:36.371Z,80.79
2023-03-01T04:43:05.693Z,80.32
2023-03-01T04:45:36.448Z,81.21
2023-03-01T04:48:07.896Z,79.60
2023-03-01T04:50:35.656Z,79.32
2023-03-01T04:53:05.420Z,79.63
2023-03-01T04:55:33.359Z,80.04
2023-03-01T04:58:01.229Z,81.60
2023-03-01T05:00:28.950Z,82.01
2023-03-01T05:02:58.928Z,80.76
2023-03-01T05:05:28.929Z,80.72
2023-03-01T05:07:58.638Z,81.22
2023-03-01T05:10:30.031Z,81.43
2023-03-01T05:13:05.538Z,80.98
2023-03-01T05:15:34.117Z,81.43
2023-03-01T05:18:12.334Z,80.88
2023-03-01T05:20:40.557Z,81.22
2023-03-01T05:23:08.769Z,81.29
2023-03-01T05:25:41.269Z,80.47
2023-03-01T05:28:13.636Z,81.38
2023-03-01T05:30:42.594Z,81.46
2023-03-01T05:33:14.672Z,81.56
2023-03-01T05:35:44.048Z,81.24
2023-03-01T05:38:14.148Z,81.42
2023-03-01T05:40:44.826Z,80.93
2023-03-01T05:43:13.739Z,81.03
2023-03-01T05:45:42.963Z,81.17
2023-03-01T05:48:11.782Z,81.86
2023-03-01T05:50:41.299Z,82.47
2023-03-01T05:53:11.284Z,82.00
2023-03-01T05:55:40.319Z,81.30
2023-03-01T05:58:12.098Z,81.68
2023-03-01T06:00:40.508Z,82.17
2023-03-01T06:03:08.465Z,81.31
2023-03-01T06:05:36.339Z,82.69
2023-03-01T06:08:05.047Z,81.32
2023-03-01T06:10:33.162Z,82.87
2023-03-01T06:13:01.354Z,83.04
2023-03-01T06:15:30.752Z,83.46
2023-03-01T06:18:00.309Z,82.76
2023-03-01T06:20:30.135Z,83.15
2023-03-01T06:22:58.676Z,83.27
2023-03-01T06:25:28.562Z,82.91
2023-03-01T06:27:56.357Z,83.66
2023-03-01T06:30:26.163Z,84.26
2023-03-01T06:33:01.651Z,83.44
2023-03-01T06:35:30.862Z,83.15
2023-03-01T06:37:59.884Z,83.38
2023-03-01T06:40:28.088Z,83.53
2023-03-01T06:42:55.911Z,83.85
2023-03-01T06:45:23.817Z,83.68
2023-03-01T06:47:51.632Z,84.38
2023-03-01T06:50:21.191Z,84.43
2023-03-01T06:52:49.143Z,84.60
2023-03-01T06:55:17.272Z,83.89
2023-03-01T06:57:45.064Z,84.27
2023-03-01T07:00:14.081Z,85.50
2023-03-01T07:02:41.888Z,86.43
2023-03-01T07:05:10.149Z,86.27
2023-03-01T07:07:39.258Z,86.06
2023-03-01T07:10:08.589Z,86.56
2023-03-01T07:12:38.719Z,86.71
2023-03-01T07:15:07.607Z,87.03
2023-03-01T07:17:35.529Z,86.96
2023-03-01T07:20:03.436Z,86.86
2023-03-01T07:22:31.127Z,87.31
2023-03-01T07:25:00.227Z,88.32
2023-03-01T07:27:28.013Z,87.56
2023-03-01T07:29:55.781Z,87.05
2023-03-01T07:32:25.073Z,87.00
2023-03-01T07:34:53.424Z,87.87
2023-03-01T07:37:21.346Z,87.55
2023-03-01T07:39:49.193Z,88.29
2023-03-01T07:42:18.405Z,89.12
2023-03-01T07:44:50.308Z,89.13
2023-03-01T07:47:24.351Z,89.66
2023-03-01T07:49:52.191Z,87.93
2023-03-01T07:52:19.976Z,87.53
2023-03-01T07:54:47.750Z,87.71
2023-03-01T07:57:15.662Z,87.58
2023-03-01T07:59:44.800Z,86.41
2023-03-01T08:02:12.936Z,87.10
2023-03-01T08:04:40.760Z,86.56
2023-03-01T08:07:08.524Z,86.95
2023-03-01T08:09:36.696Z,87.31
2023-03-01T08:12:05.482Z,87.24
2023-03-01T08:14:33.385Z,86.51
2023-03-01T08:17:03.881Z,84.15
2023-03-01T08:19:32.156Z,85.27
2023-03-01T08:22:00.837Z,84.12
2023-03-01T08:24:28.709Z,82.76
2023-03-01T08:26:56.828Z,82.37
2023-03-01T08:29:25.561Z,83.15
2023-03-01T08:31:53.536Z,79.95
2023-03-01T08:34:22.780Z,78.75
2023-03-01T08:36:51.139Z,78.71
2023-03-01T08:39:21.113Z,77.71
2023-03-01T08:41:49.421Z,76.31
2023-03-01T08:44:18.602Z,74.91
2023-03-01T08:46:47.552Z,71.73
2023-03-01T08:49:17.289Z,72.07
2023-03-01T08:51:47.735Z,71.37
2023-03-01T08:54:19.056Z,71.74
2023-03-01T08:56:47.255Z,72.06
2023-03-01T08:59:16.689Z,70.86
2023-03-01T09:01:45.197Z,72.07
2023-03-01T09:04:13.649Z,70.34
2023-03-01T09:06:41.895Z,69.61
2023-03-01T09:09:16.736Z,68.67
2023-03-01T09:11:46.864Z,70.09
2023-03-01T09:14:14.770Z,68.21
2023-03-01T09:16:42.613Z,68.75
2023-03-01T09:19:10.716Z,66.58
2023-03-01T09:21:41.113Z,67.21
2023-03-01T09:24:16.524Z,64.71
2023-03-01T09:26:47.572Z,65.49
2023-03-01T09:29:17.200Z,65.59
2023-03-01T09:31:45.098Z,64.55
2023-03-01T09:34:14.638Z,65.04
2023-03-01T09:36:42.633Z,64.96
2023-03-01T09:39:10.447Z,63.59
2023-03-01T09:41:56.449Z,64.10
2023-03-01T09:44:36.259Z,64.20
2023-03-01T09:47:04.999Z,62.92
2023-03-01T09:49:35.546Z,62.36
2023-03-01T09:52:11.640Z,62.51
2023-03-01T09:54:39.575Z,62.16
2023-03-01T09:57:19.546Z,60.70
2023-03-01T10:00:11.436Z,59.82
2023-03-01T10:02:44.564Z,58.78
2023-03-01T10:05:27.191Z,59.13
2023-03-01T10:08:08.551Z,57.76
2023-03-01T10:10:39.371Z,57.02
2023-03-01T10:13:17.185Z,55.59
2023-03-01T10:15:49.634Z,56.20
2023-03-01T10:18:21.188Z,55.81
2023-03-01T10:20:54.612Z,55.16
2023-03-01T10:23:22.648Z,53.75
2023-03-01T10:26:06.149Z,52.48
2023-03-01T10:28:47.013Z,53.36
2023-03-01T10:31:16.993Z,55.02
2023-03-01T10:33:45.026Z,51.36
2023-03-01T10:36:12.744Z,51.77
2023-03-01T10:38:53.365Z,51.55
2023-03-01T10:41:21.592Z,53.49
2023-03-01T10:43:52.862Z,51.19
2023-03-01T10:46:26.587Z,52.08
2023-03-01T10:49:16.606Z,49.61
2023-03-01T10:51:47.073Z,49.41
2023-03-01T10:54:20.058Z,49.33
2023-03-01T10:56:50.297Z,47.24
2023-03-01T10:59:28.608Z,48.05
2023-03-01T11:02:25.320Z,49.66
2023-03-01T11:05:02.225Z,48.03
2023-03-01T11:07:30.616Z,48.04
2023-03-01T11:09:58.529Z,46.04
2023-03-01T11:12:26.545Z,46.17
2023-03-01T11:14:57.068Z,45.40
2023-03-01T11:17:28.910Z,46.21
2023-03-01T11:20:07.352Z,43.82
2023-03-01T11:22:37.690Z,43.87
2023-03-01T11:25:13.561Z,44.43
2023-03-01T11:27:46.589Z,42.02
2023-03-01T11:30:21.992Z,42.17
2023-03-01T11:32:57.318Z,42.82
2023-03-01T11:35:28.257Z,41.37
2023-03-01T11:38:07.111Z,41.13
2023-03-01T11:40:44.030Z,41.12
2023-03-01T11:43:21.301Z,40.82
2023-03-01T11:46:31.461Z,40.59
2023-03-01T11:49:15.579Z,39.46
2023-03-01T11:51:51.788Z,40.55
2023-03-01T11:54:35.578Z,39.99
2023-03-01T11:57:13.949Z,41.40
2023-03-01T12:00:01.448Z,40.87
2023-03-01T12:03:00.683Z,41.29
2023-03-01T12:05:50.658Z,41.19
2023-03-01T12:08:27.639Z,41.26
2023-03-01T12:11:05.554Z,41.24
2023-03-01T12:14:07.041Z,41.38
2023-03-01T12:16:56.443Z,41.10
2023-03-01T12:19:43.696Z,41.41
2023-03-01T12:22:23.120Z,42.00
2023-03-01T12:25:14.427Z,40.96
2023-03-01T12:28:04.356Z,42.34
2023-03-01T12:30:45.635Z,42.73
2023-03-01T12:33:21.888Z,44.02
2023-03-01T12:36:28.688Z,42.32
2023-03-01T12:39:08.950Z,44.37
2023-03-01T12:41:48.036Z,43.23
2023-03-01T12:44:31.384Z,43.78
2023-03-01T12:47:13.309Z,42.69
2023-03-01T12:49:45.197Z,42.98
2023-03-01T12:52:23.362Z,43.09
2023-03-01T12:54:53.422Z,41.50
2023-03-01T12:57:38.073Z,41.18
2023-03-01T13:00:24.899Z,41.22
2023-03-01T13:03:01.004Z,42.00
2023-03-01T13:05:41.416Z,40.76
2023-03-01T13:08:18.966Z,40.53
2023-03-01T13:10:52.190Z,40.59
2023-03-01T13:13:25.036Z,41.52
2023-03-01T13:15:54.156Z,41.83
2023-03-01T13:18:33.046Z,41.14
2023-03-01T13:21:03.095Z,39.99
2023-03-01T13:23:35.971Z,39.22
2023-03-01T13:26:12.214Z,39.98
2023-03-01T13:28:43.074Z,38.47
2023-03-01T13:31:12.576Z,38.69
2023-03-01T13:33:49.718Z,38.49
2023-03-01T13:36:48.337Z,38.61
2023-03-01T13:39:42.374Z,39.61
2023-03-01T13:42:32.675Z,39.89
2023-03-01T13:45:01.026Z,38.84
2023-03-01T13:47:29.883Z,38.11
2023-03-01T13:50:00.218Z,38.85
2023-03-01T13:52:37.469Z,40.34
2023-03-01T13:55:17.968Z,40.61
2023-03-01T13:57:49.392Z,41.98
2023-03-01T14:00:38.374Z,42.12
2023-03-01T14:03:12.618Z,42.12
2023-03-01T14:05:40.890Z,42.21
2023-03-01T14:08:21.817Z,41.65
2023-03-01T14:11:24.308Z,42.12
2023-03-01T14:14:16.678Z,42.56
2023-03-01T14:16:54.977Z,42.46
2023-03-01T14:19:34.625Z,43.13
2023-03-01T14:22:14.770Z,42.54
2023-03-01T14:24:48.570Z,43.60
2023-03-01T14:27:19.161Z,43.80
2023-03-01T14:29:57.048Z,44.83
2023-03-01T14:32:28.597Z,44.84
2023-03-01T14:34:56.858Z,45.04
2023-03-01T14:37:27.501Z,44.99
2023-03-01T14:39:56.666Z,45.00
2023-03-01T14:42:30.248Z,45.30
2023-03-01T14:44:59.933Z,45.26
2023-03-01T14:47:30.698Z,45.46
2023-03-01T14:50:01.439Z,45.73
2023-03-01T14:52:36.902Z,44.92
2023-03-01T14:55:07.870Z,44.77
2023-03-01T14:57:37.443Z,45.32
2023-03-01T15:00:08.926Z,45.23
2023-03-01T15:02:37.559Z,45.68
2023-03-01T15:05:09.054Z,45.25
2023-03-01T15:07:41.469Z,45.54
2023-03-01T15:10:19.666Z,45.91
2023-03-01T15:12:48.884Z,46.62
2023-03-01T15:15:33.543Z,46.80
2023-03-01T15:18:04.099Z,47.53
2023-03-01T15:20:36.223Z,46.09
2023-03-01T15:23:05.631Z,46.17
2023-03-01T15:25:35.288Z,45.99
2023-03-01T15:28:05.028Z,46.81
2023-03-01T15:30:38.698Z,46.75
2023-03-01T15:33:32.231Z,46.21
2023-03-01T15:36:00.910Z,46.72
2023-03-01T15:38:34.458Z,47.47
2023-03-01T15:41:04.102Z,46.70
2023-03-01T15:43:45.423Z,47.27
2023-03-01T15:46:33.325Z,47.46
2023-03-01T15:49:03.822Z,48.36
2023-03-01T15:51:35.431Z,47.96
2023-03-01T15:54:07.495Z,47.54
2023-03-01T15:56:35.423Z,47.39
2023-03-01T15:59:05.615Z,47.67
2023-03-01T16:01:35.245Z,48.10
2023-03-01T16:04:05.151Z,47.47
2023-03-01T16:06:33.613Z,47.62
2023-03-01T16:09:01.604Z,48.08
2023-03-01T16:11:29.388Z,47.29
2023-03-01T16:13:57.230Z,48.14
2023-03-01T16:16:26.403Z,47.54
2023-03-01T16:18:55.677Z,48.73
2023-03-01T16:21:25.684Z,48.31
2023-03-01T16:23:54.712Z,47.71
2023-03-01T16:26:22.734Z,48.37
2023-03-01T16:28:50.863Z,47.99
2023-03-01T16:31:22.774Z,48.32
2023-03-01T16:33:55.562Z,48.81
2023-03-01T16:36:25.405Z,47.91
2023-03-01T16:38:53.889Z,49.36
2023-03-01T16:41:25.078Z,48.85
2023-03-01T16:43:53.051Z,48.74
2023-03-01T16:46:22.818Z,49.07
2023-03-01T16:48:51.555Z,48.55
2023-03-01T16:51:21.231Z,48.99
2023-03-01T16:53:49.209Z,48.66
2023-03-01T16:56:20.572Z,49.00
2023-03-01T16:58:48.692Z,49.43
2023-03-01T17:01:18.542Z,48.54
2023-03-01T17:03:48.339Z,48.85
2023-03-01T17:06:19.009Z,49.79
2023-03-01T17:08:48.508Z,49.45
2023-03-01T17:11:18.422Z,49.83
2023-03-01T17:13:46.890Z,50.23
2023-03-01T17:16:16.982Z,50.85
2023-03-01T17:18:44.879Z,49.67
2023-03-01T17:21:13.620Z,49.74
2023-03-01T17:23:44.450Z,49.97
2023-03-01T17:26:14.205Z,50.28
2023-03-01T17:28:43.819Z,49.62
2023-03-01T17:31:13.139Z,49.21
2023-03-01T17:33:41.017Z,49.53
2023-03-01T17:36:09.026Z,49.53
2023-03-01T17:38:37.365Z,50.21
2023-03-01T17:41:05.902Z,50.73
2023-03-01T17:43:35.888Z,51.10
2023-03-01T17:46:03.790Z,50.67
2023-03-01T17:48:31.529Z,51.39
2023-03-01T17:50:59.368Z,51.18
2023-03-01T17:53:27.839Z,50.77
2023-03-01T17:56:02.047Z,51.48
2023-03-01T17:58:30.294Z,50.98
2023-03-01T18:01:08.705Z,51.37
2023-03-01T18:03:36.796Z,52.15
2023-03-01T18:06:11.075Z,51.56
2023-03-01T18:08:38.863Z,52.11
2023-03-01T18:11:10.164Z,51.79
2023-03-01T18:13:38.270Z,52.08
2023-03-01T18:16:11.477Z,52.25
2023-03-01T18:18:39.869Z,51.70
2023-03-01T18:21:09.947Z,51.84
2023-03-01T18:23:37.844Z,53.23
2023-03-01T18:26:10.809Z,52.16
2023-03-01T18:28:40.133Z,52.73
2023-03-01T18:31:11.764Z,52.57
2023-03-01T18:33:41.192Z,53.57
2023-03-01T18:36:18.423Z,53.25
2023-03-01T18:38:47.315Z,54.52
2023-03-01T18:41:15.968Z,54.04
2023-03-01T18:43:46.984Z,53.01
2023-03-01T18:46:16.453Z,53.66
2023-03-01T18:48:44.891Z,54.18
2023-03-01T18:51:15.271Z,54.41
2023-03-01T18:53:43.706Z,54.28
2023-03-01T18:56:12.612Z,55.39
2023-03-01T18:58:42.443Z,55.20
2023-03-01T19:01:16.733Z,55.79
2023-03-01T19:03:44.726Z,54.74
2023-03-01T19:06:13.007Z,55.87
2023-03-01T19:08:42.357Z,55.04
2023-03-01T19:11:10.599Z,54.95
2023-03-01T19:13:40.334Z,56.25
2023-03-01T19:16:10.942Z,57.40
2023-03-01T19:18:41.808Z,56.55
2023-03-01T19:21:12.128Z,56.80
2023-03-01T19:23:40.014Z,58.28
2023-03-01T19:26:09.801Z,57.85
2023-03-01T19:28:39.764Z,57.74
2023-03-01T19:31:10.201Z,58.59
2023-03-01T19:33:41.210Z,58.24
2023-03-01T19:36:10.213Z,58.83
2023-03-01T19:38:39.000Z,59.36
2023-03-01T19:41:08.887Z,57.87
2023-03-01T19:43:38.865Z,58.96
2023-03-01T19:46:06.693Z,60.01
2023-03-01T19:48:34.695Z,60.35
2023-03-01T19:51:03.937Z,60.34
2023-03-01T19:53:31.761Z,61.01
2023-03-01T19:56:00.264Z,60.57
2023-03-01T19:58:28.841Z,61.63
2023-03-01T20:00:58.803Z,61.76
2023-03-01T20:03:27.486Z,61.60
2023-03-01T20:05:56.569Z,62.04
2023-03-01T20:08:26.613Z,62.58
2023-03-01T20:10:54.366Z,61.76
2023-03-01T20:13:23.135Z,62.62
2023-03-01T20:15:51.030Z,63.57
2023-03-01T20:18:18.775Z,62.56
2023-03-01T20:20:50.030Z,63.86
2023-03-01T20:23:18.014Z,62.72
2023-03-01T20:25:48.521Z,63.37
2023-03-01T20:28:16.750Z,63.09
2023-03-01T20:30:44.544Z,63.58
2023-03-01T20:33:12.451Z,64.54
2023-03-01T20:35:42.753Z,64.35
2023-03-01T20:38:10.834Z,65.05
2023-03-01T20:40:39.001Z,65.15
2023-03-01T20:43:08.062Z,64.59
2023-03-01T20:45:35.825Z,64.05
2023-03-01T20:48:03.666Z,65.17
2023-03-01T20:50:31.362Z,65.30
2023-03-01T20:52:59.127Z,66.14
2023-03-01T20:55:26.963Z,65.54
2023-03-01T20:57:54.763Z,65.00
2023-03-01T21:00:23.946Z,65.02
2023-03-01T21:02:51.743Z,65.20
2023-03-01T21:05:19.883Z,66.08
2023-03-01T21:07:47.917Z,66.07
2023-03-01T21:10:16.106Z,65.69
2023-03-01T21:12:43.916Z,66.79
2023-03-01T21:15:23.512Z,67.19
2023-03-01T21:17:57.465Z,68.01
2023-03-01T21:20:25.356Z,69.06
2023-03-01T21:22:53.154Z,69.39
2023-03-01T21:25:20.884Z,69.93
2023-03-01T21:27:48.707Z,69.18
2023-03-01T21:30:17.178Z,68.54
2023-03-01T21:32:45.091Z,68.74
2023-03-01T21:35:14.228Z,69.46
2023-03-01T21:37:42.021Z,69.21
2023-03-01T21:40:11.421Z,68.72
2023-03-01T21:42:39.324Z,68.91
2023-03-01T21:45:08.012Z,70.35
2023-03-01T21:47:36.177Z,70.06
2023-03-01T21:50:03.927Z,69.74
2023-03-01T21:52:33.074Z,68.73
2023-03-01T21:55:02.947Z,70.54
2023-03-01T21:57:30.843Z,69.33
2023-03-01T21:59:58.596Z,69.56
2023-03-01T22:02:26.360Z,70.25
2023-03-01T22:04:57.647Z,70.95
2023-03-01T22:07:25.419Z,71.23
2023-03-01T22:09:54.666Z,71.32
2023-03-01T22:12:22.379Z,70.72
2023-03-01T22:14:50.098Z,71.78
2023-03-01T22:17:17.917Z,71.60
2023-03-01T22:19:46.305Z,71.58
2023-03-01T22:22:14.103Z,71.70
2023-03-01T22:24:41.880Z,72.16
2023-03-01T22:27:10.993Z,72.07
2023-03-01T22:29:38.731Z,72.23
2023-03-01T22:32:06.833Z,73.89
2023-03-01T22:34:35.815Z,72.37
2023-03-01T22:37:03.674Z,72.63
2023-03-01T22:39:31.408Z,72.37
2023-03-01T22:41:59.189Z,72.36
2023-03-01T22:44:28.375Z,73.35
2023-03-01T22:46:56.156Z,74.15
2023-03-01T22:49:24.238Z,74.52
2023-03-01T22:51:52.741Z,73.43
2023-03-01T22:54:21.589Z,73.43
2023-03-01T22:56:50.062Z,73.23
2023-03-01T22:59:20.805Z,72.53
2023-03-01T23:01:50.213Z,74.46
2023-03-01T23:04:18.466Z,74.32
2023-03-01T23:06:54.029Z,74.98
2023-03-01T23:09:25.023Z,75.99
2023-03-01T23:11:53.239Z,75.93
2023-03-01T23:14:22.226Z,76.26
2023-03-01T23:16:52.629Z,76.65
2023-03-01T23:19:20.565Z,77.40
2023-03-01T23:21:50.500Z,76.39
2023-03-01T23:24:19.716Z,77.30
2023-03-01T23:26:51.846Z,76.82
2023-03-01T23:29:20.094Z,76.02
2023-03-01T23:31:47.844Z,76.00
2023-03-01T23:34:16.978Z,77.10
2023-03-01T23:36:45.861Z,77.11
2023-03-01T23:39:14.841Z,77.89
2023-03-01T23:41:42.838Z,77.56
2023-03-01T23:44:16.517Z,77.47
2023-03-01T23:46:45.217Z,77.65
2023-03-01T23:49:14.811Z,77.64
2023-03-01T23:51:45.452Z,78.30
2023-03-01T23:54:15.385Z,78.32
2023-03-01T23:56:44.742Z,78.65
2023-03-01T23:59:14.873Z,78.20
